Airport View

Enter ICAO identifier to see the current METAR for that AWOS.

KFNL for example

KFWC 300435Z AUTO 00000KT 10SM CLR 16/14 A3009

30 Jul 2014 04:59

Frequency: 119.425

Phone: 618-847-4709

Other Area AWOS: KFOA - KMVN - KCUL - KOLY

TAF KEVV 292335Z 3000/3024 30005KT P6SM SKC FM300100 00000KT P6SM SKC TEMPO 3009/3012 5SM BR FM301500 26005KT P6SM SCT040 BKN200